Perrysburg, Ohio
Current Conditions -  °F | °C
As of 10:53 PM on Saturday 20 Dec 2014 (Local Time) from KTDZ Reporting Station
Overcast Overcast  
Wind Chill: 30°   Ceiling: 3200
Heat Index: 30°   Visibility: 7mi
Dew Point: 24°   Wind: 3mph
Humidity: 79%   Direction: 140°SE
Pressure: 30.29"   Gusts: NA
Location:  41.56°N, 83.63°W
Report Text: KTDZ 210353Z AUTO 14003KT 7SM OVC032 M01/M04 A3029 RMK AO2 SLP264 T10111044 TSNO
Loading
Personal Weather Stations






























Interactive Weather Map New forecast layout! Learn more

10-Day Weather Forecast

Advertisements
Track Severe Weather on mobile